Pagrindinis puslapis
METAR-TAF:

METAR-TAF

Oro uostai :

Kalmaras, Švedija

platuma: 56-44N, ilguma: 016-18E, Aukštis: 16 m

Dabartinis oras

Ataskaita buvo paskelbta 29 minutes, ne 17:50 UTC
Vėjas 7 kt iš Pietų/Pietryčių
Temperatūra 15°C
Drėgmė 100%
Slėgis 1003 hPa
Matomumas: 2400 m
rūkana

METAR: ESMQ 231750Z AUTO 16007KT 2400 BR NCD 15/15 Q1003

Laikas: 20:19 (18:19 UTC)

Prognozė

Ataskaita buvo paskelbta 3 valandos ir 49 minutes, ne 14:30 UTC
Prognozė galioja nuo 23 metu 15 UTC su 23 metu 18 UTC
Vėjas 10 kt iš Pietų
Matomumas 10 km arba daugiau
nėra debesų žemiau 1500 m ir nėra kamuolinių lietaus debesų

TAF: ESMQ 231430Z 2315/2318 17010KT CAVOK

Orai ataskaitas ir orų prognozės (METAR, TAF).

turimą stotys yra geltonos ir raudonos taškus žemėlapyje.

Perkelti pele per norėdami pamatyti stoties vardą.

Tada spustelėkite, norėdami matyti oro stebėjimo ir prognozės.

Norėdami pakeisti žemėlapį: spustelėkite ant žalios mygtukų su juodo kryžiaus žemyn,; žalią mygtuką su brūkšneliu, jei norite nutolinti; arba žalių rodyklių gretimoms žemėlapius.


METAR-TAF: